Terminal Aerodrome Forecast
Issued by NWS

Home | Current Version | Previous Version | Text Only | Print | Product List | Glossary On
Versions: 1 2 3 4 5 6 7 8 9 10 11 12 13 14 15 16 17 18 19 20 21 22 23 24 25 26 27 28 29 30 31 32 33 34 35 36 37 38 39 40 41 42
000
FTUS45 KGJT 232335
TAFTEX
TAF
KTEX 232335Z 2400/2424 00000KT P6SM -RASN SCT009 SCT015 OVC070
     FM240300 26004KT 3SM -SHSN OVC025
     FM240700 30013G26KT 3SM -SHSN BLSN OVC015
     FM241000 32013G25KT P6SM VCSH OVC010
     FM241600 33007KT P6SM SCT025 BKN080
     FM241900 VRB03KT P6SM FEW080 BKN150=

USA.gov is the U.S. government's official web portal to all federal, state and local government web resources and services.